sensor_id;sensor_type;location;lat;lon;timestamp;temperature;humidity
20845;DHT22;10583;49.084;8.646;2022-11-15T00:02:05;7.60;99.90
20845;DHT22;10583;49.084;8.646;2022-11-15T00:04:31;7.60;99.90
20845;DHT22;10583;49.084;8.646;2022-11-15T00:06:58;7.60;99.90
20845;DHT22;10583;49.084;8.646;2022-11-15T00:09:25;7.60;99.90
20845;DHT22;10583;49.084;8.646;2022-11-15T00:11:51;7.60;99.90
20845;DHT22;10583;49.084;8.646;2022-11-15T00:14:18;7.50;99.90
20845;DHT22;10583;49.084;8.646;2022-11-15T00:16:45;7.50;99.90
20845;DHT22;10583;49.084;8.646;2022-11-15T00:19:13;7.50;99.90
20845;DHT22;10583;49.084;8.646;2022-11-15T00:21:40;7.50;99.90
20845;DHT22;10583;49.084;8.646;2022-11-15T00:24:07;7.50;99.90
20845;DHT22;10583;49.084;8.646;2022-11-15T00:26:33;7.50;99.90
20845;DHT22;10583;49.084;8.646;2022-11-15T00:29:00;7.40;99.90
20845;DHT22;10583;49.084;8.646;2022-11-15T00:31:27;7.40;99.90
20845;DHT22;10583;49.084;8.646;2022-11-15T00:33:53;7.40;99.90
20845;DHT22;10583;49.084;8.646;2022-11-15T00:36:21;7.40;99.90
20845;DHT22;10583;49.084;8.646;2022-11-15T00:38:48;7.40;99.90
20845;DHT22;10583;49.084;8.646;2022-11-15T00:41:15;7.30;99.90
20845;DHT22;10583;49.084;8.646;2022-11-15T00:43:42;7.30;99.90
20845;DHT22;10583;49.084;8.646;2022-11-15T00:46:09;7.30;99.90
20845;DHT22;10583;49.084;8.646;2022-11-15T00:48:36;7.30;99.90
20845;DHT22;10583;49.084;8.646;2022-11-15T00:51:03;7.20;99.90
20845;DHT22;10583;49.084;8.646;2022-11-15T00:53:31;7.20;99.90
20845;DHT22;10583;49.084;8.646;2022-11-15T00:55:57;7.20;99.90
20845;DHT22;10583;49.084;8.646;2022-11-15T00:58:24;7.20;99.90
20845;DHT22;10583;49.084;8.646;2022-11-15T01:00:51;7.20;99.90
20845;DHT22;10583;49.084;8.646;2022-11-15T01:03:18;7.20;99.90
20845;DHT22;10583;49.084;8.646;2022-11-15T01:05:44;7.20;99.90
20845;DHT22;10583;49.084;8.646;2022-11-15T01:08:12;7.20;99.90
20845;DHT22;10583;49.084;8.646;2022-11-15T01:10:41;7.20;99.90
20845;DHT22;10583;49.084;8.646;2022-11-15T01:13:08;7.10;99.90
20845;DHT22;10583;49.084;8.646;2022-11-15T01:15:39;7.10;99.90
20845;DHT22;10583;49.084;8.646;2022-11-15T01:18:05;7.10;99.90
20845;DHT22;10583;49.084;8.646;2022-11-15T01:20:32;7.10;99.90
20845;DHT22;10583;49.084;8.646;2022-11-15T01:22:59;7.10;99.90
20845;DHT22;10583;49.084;8.646;2022-11-15T01:25:26;7.10;99.90
20845;DHT22;10583;49.084;8.646;2022-11-15T01:27:54;7.10;99.90
20845;DHT22;10583;49.084;8.646;2022-11-15T01:30:20;7.00;99.90
20845;DHT22;10583;49.084;8.646;2022-11-15T01:32:47;6.90;99.90
20845;DHT22;10583;49.084;8.646;2022-11-15T01:35:14;6.90;99.90
20845;DHT22;10583;49.084;8.646;2022-11-15T01:37:40;6.90;99.90
20845;DHT22;10583;49.084;8.646;2022-11-15T01:40:08;6.90;99.90
20845;DHT22;10583;49.084;8.646;2022-11-15T01:42:35;6.90;99.90
20845;DHT22;10583;49.084;8.646;2022-11-15T01:45:03;6.80;99.90
20845;DHT22;10583;49.084;8.646;2022-11-15T01:47:34;6.80;99.90
20845;DHT22;10583;49.084;8.646;2022-11-15T01:50:03;6.90;99.90
20845;DHT22;10583;49.084;8.646;2022-11-15T01:52:32;6.90;99.90
20845;DHT22;10583;49.084;8.646;2022-11-15T01:55:03;6.90;99.90
20845;DHT22;10583;49.084;8.646;2022-11-15T01:57:31;6.90;99.90
20845;DHT22;10583;49.084;8.646;2022-11-15T02:00:08;6.90;99.90
20845;DHT22;10583;49.084;8.646;2022-11-15T02:02:36;6.90;99.90
20845;DHT22;10583;49.084;8.646;2022-11-15T02:05:04;6.90;99.90
20845;DHT22;10583;49.084;8.646;2022-11-15T02:07:31;6.90;99.90
20845;DHT22;10583;49.084;8.646;2022-11-15T02:10:02;6.90;99.90
20845;DHT22;10583;49.084;8.646;2022-11-15T02:12:31;6.90;99.90
20845;DHT22;10583;49.084;8.646;2022-11-15T02:14:57;6.90;99.90
20845;DHT22;10583;49.084;8.646;2022-11-15T02:17:55;7.00;99.90
20845;DHT22;10583;49.084;8.646;2022-11-15T02:20:35;7.00;99.90
20845;DHT22;10583;49.084;8.646;2022-11-15T02:26:52;7.20;99.90
20845;DHT22;10583;49.084;8.646;2022-11-15T02:29:35;7.30;99.90
20845;DHT22;10583;49.084;8.646;2022-11-15T02:32:13;7.30;99.90
20845;DHT22;10583;49.084;8.646;2022-11-15T02:34:50;7.30;99.90
20845;DHT22;10583;49.084;8.646;2022-11-15T02:37:24;7.40;99.90
20845;DHT22;10583;49.084;8.646;2022-11-15T02:39:58;7.40;99.90
20845;DHT22;10583;49.084;8.646;2022-11-15T02:42:30;7.50;99.90
20845;DHT22;10583;49.084;8.646;2022-11-15T02:45:19;7.60;99.90
20845;DHT22;10583;49.084;8.646;2022-11-15T02:47:50;7.60;99.90
20845;DHT22;10583;49.084;8.646;2022-11-15T02:50:20;7.60;99.90
20845;DHT22;10583;49.084;8.646;2022-11-15T02:52:49;7.70;99.90
20845;DHT22;10583;49.084;8.646;2022-11-15T02:55:26;7.70;99.90
20845;DHT22;10583;49.084;8.646;2022-11-15T02:58:06;7.80;99.90
20845;DHT22;10583;49.084;8.646;2022-11-15T03:00:35;7.80;99.90
20845;DHT22;10583;49.084;8.646;2022-11-15T03:03:37;7.80;99.90
20845;DHT22;10583;49.084;8.646;2022-11-15T03:06:16;7.90;99.90
20845;DHT22;10583;49.084;8.646;2022-11-15T03:08:54;7.90;99.90
20845;DHT22;10583;49.084;8.646;2022-11-15T03:11:23;8.00;99.90
20845;DHT22;10583;49.084;8.646;2022-11-15T03:13:56;8.10;99.90
20845;DHT22;10583;49.084;8.646;2022-11-15T03:16:27;8.10;99.90
20845;DHT22;10583;49.084;8.646;2022-11-15T03:19:02;8.10;99.90
20845;DHT22;10583;49.084;8.646;2022-11-15T03:21:30;8.20;99.90
20845;DHT22;10583;49.084;8.646;2022-11-15T03:23:59;8.20;99.90
20845;DHT22;10583;49.084;8.646;2022-11-15T03:26:27;8.20;99.90
20845;DHT22;10583;49.084;8.646;2022-11-15T03:28:57;8.30;99.90
20845;DHT22;10583;49.084;8.646;2022-11-15T03:31:28;8.30;99.90
20845;DHT22;10583;49.084;8.646;2022-11-15T03:34:26;8.40;99.90
20845;DHT22;10583;49.084;8.646;2022-11-15T03:36:54;8.40;99.90
20845;DHT22;10583;49.084;8.646;2022-11-15T03:39:21;8.50;99.90
20845;DHT22;10583;49.084;8.646;2022-11-15T03:41:56;8.40;99.90
20845;DHT22;10583;49.084;8.646;2022-11-15T03:44:34;8.50;99.90
20845;DHT22;10583;49.084;8.646;2022-11-15T03:47:07;8.60;99.90
20845;DHT22;10583;49.084;8.646;2022-11-15T03:49:40;8.60;99.90
20845;DHT22;10583;49.084;8.646;2022-11-15T03:52:10;8.70;99.90
20845;DHT22;10583;49.084;8.646;2022-11-15T03:54:37;8.70;99.90
20845;DHT22;10583;49.084;8.646;2022-11-15T03:57:13;8.70;99.90
20845;DHT22;10583;49.084;8.646;2022-11-15T03:59:40;8.70;99.90
20845;DHT22;10583;49.084;8.646;2022-11-15T04:02:06;8.70;99.90
20845;DHT22;10583;49.084;8.646;2022-11-15T04:04:33;8.80;99.90
20845;DHT22;10583;49.084;8.646;2022-11-15T04:07:01;8.80;99.90
20845;DHT22;10583;49.084;8.646;2022-11-15T04:09:28;8.80;99.90
20845;DHT22;10583;49.084;8.646;2022-11-15T04:11:54;8.90;99.90
20845;DHT22;10583;49.084;8.646;2022-11-15T04:14:21;8.90;99.90
20845;DHT22;10583;49.084;8.646;2022-11-15T04:16:48;8.90;99.90
20845;DHT22;10583;49.084;8.646;2022-11-15T04:19:15;8.90;99.90
20845;DHT22;10583;49.084;8.646;2022-11-15T04:22:00;8.90;99.90
20845;DHT22;10583;49.084;8.646;2022-11-15T04:24:44;8.90;99.90
20845;DHT22;10583;49.084;8.646;2022-11-15T04:27:11;8.90;99.90
20845;DHT22;10583;49.084;8.646;2022-11-15T04:29:39;8.90;99.90
20845;DHT22;10583;49.084;8.646;2022-11-15T04:32:06;8.90;99.90
20845;DHT22;10583;49.084;8.646;2022-11-15T04:34:33;8.80;99.90
20845;DHT22;10583;49.084;8.646;2022-11-15T04:37:01;8.80;99.90
20845;DHT22;10583;49.084;8.646;2022-11-15T04:39:42;8.80;99.90
20845;DHT22;10583;49.084;8.646;2022-11-15T04:42:09;8.80;99.90
20845;DHT22;10583;49.084;8.646;2022-11-15T04:44:36;8.80;99.90
20845;DHT22;10583;49.084;8.646;2022-11-15T04:47:03;8.80;99.90
20845;DHT22;10583;49.084;8.646;2022-11-15T04:49:30;8.80;99.90
20845;DHT22;10583;49.084;8.646;2022-11-15T04:51:57;8.80;99.90
20845;DHT22;10583;49.084;8.646;2022-11-15T04:54:25;8.80;99.90
20845;DHT22;10583;49.084;8.646;2022-11-15T04:56:51;8.80;99.90
20845;DHT22;10583;49.084;8.646;2022-11-15T04:59:18;8.80;99.90
20845;DHT22;10583;49.084;8.646;2022-11-15T05:01:45;8.80;99.90
20845;DHT22;10583;49.084;8.646;2022-11-15T05:04:11;8.80;99.90
20845;DHT22;10583;49.084;8.646;2022-11-15T05:06:47;8.70;99.90
20845;DHT22;10583;49.084;8.646;2022-11-15T05:09:14;8.70;99.90
20845;DHT22;10583;49.084;8.646;2022-11-15T05:11:43;8.70;99.90
20845;DHT22;10583;49.084;8.646;2022-11-15T05:14:10;8.70;99.90
20845;DHT22;10583;49.084;8.646;2022-11-15T05:16:37;8.70;99.90
20845;DHT22;10583;49.084;8.646;2022-11-15T05:19:04;8.70;99.90
20845;DHT22;10583;49.084;8.646;2022-11-15T05:21:31;8.80;99.90
20845;DHT22;10583;49.084;8.646;2022-11-15T05:23:58;8.70;99.90
20845;DHT22;10583;49.084;8.646;2022-11-15T05:26:25;8.70;99.90
20845;DHT22;10583;49.084;8.646;2022-11-15T05:28:54;8.60;99.90
20845;DHT22;10583;49.084;8.646;2022-11-15T05:31:22;8.60;99.90
20845;DHT22;10583;49.084;8.646;2022-11-15T05:33:50;8.50;99.90
20845;DHT22;10583;49.084;8.646;2022-11-15T05:36:20;8.50;99.90
20845;DHT22;10583;49.084;8.646;2022-11-15T05:38:48;8.60;99.90
20845;DHT22;10583;49.084;8.646;2022-11-15T05:41:16;8.60;99.90
20845;DHT22;10583;49.084;8.646;2022-11-15T05:43:45;8.50;99.90
20845;DHT22;10583;49.084;8.646;2022-11-15T05:46:13;8.60;99.90
20845;DHT22;10583;49.084;8.646;2022-11-15T05:48:42;8.60;99.90
20845;DHT22;10583;49.084;8.646;2022-11-15T05:51:09;8.60;99.90
20845;DHT22;10583;49.084;8.646;2022-11-15T05:53:38;8.60;99.90
20845;DHT22;10583;49.084;8.646;2022-11-15T05:56:05;8.60;99.90
20845;DHT22;10583;49.084;8.646;2022-11-15T05:58:32;8.50;99.90
20845;DHT22;10583;49.084;8.646;2022-11-15T06:00:59;8.40;99.90
20845;DHT22;10583;49.084;8.646;2022-11-15T06:03:28;8.30;99.90
20845;DHT22;10583;49.084;8.646;2022-11-15T06:05:55;8.30;99.90
20845;DHT22;10583;49.084;8.646;2022-11-15T06:08:22;8.20;99.90
20845;DHT22;10583;49.084;8.646;2022-11-15T06:10:49;8.10;99.90
20845;DHT22;10583;49.084;8.646;2022-11-15T06:13:15;8.00;99.90
20845;DHT22;10583;49.084;8.646;2022-11-15T06:15:42;8.00;99.90
20845;DHT22;10583;49.084;8.646;2022-11-15T06:18:09;7.90;99.90
20845;DHT22;10583;49.084;8.646;2022-11-15T06:20:37;7.90;99.90
20845;DHT22;10583;49.084;8.646;2022-11-15T06:23:04;7.90;99.90
20845;DHT22;10583;49.084;8.646;2022-11-15T06:25:31;7.80;99.90
20845;DHT22;10583;49.084;8.646;2022-11-15T06:27:58;7.90;99.90
20845;DHT22;10583;49.084;8.646;2022-11-15T06:30:26;7.90;99.90
20845;DHT22;10583;49.084;8.646;2022-11-15T06:32:59;8.00;99.90
20845;DHT22;10583;49.084;8.646;2022-11-15T06:35:26;8.00;99.90
20845;DHT22;10583;49.084;8.646;2022-11-15T06:37:54;8.00;99.90
20845;DHT22;10583;49.084;8.646;2022-11-15T06:40:21;8.00;99.90
20845;DHT22;10583;49.084;8.646;2022-11-15T06:42:47;8.10;99.90
20845;DHT22;10583;49.084;8.646;2022-11-15T06:45:14;8.10;99.90
20845;DHT22;10583;49.084;8.646;2022-11-15T06:47:44;8.20;99.90
20845;DHT22;10583;49.084;8.646;2022-11-15T06:50:11;8.10;99.90
20845;DHT22;10583;49.084;8.646;2022-11-15T06:52:38;8.00;99.90
20845;DHT22;10583;49.084;8.646;2022-11-15T06:55:08;8.00;99.90
20845;DHT22;10583;49.084;8.646;2022-11-15T06:57:35;8.00;99.90
20845;DHT22;10583;49.084;8.646;2022-11-15T07:00:03;8.10;99.90
20845;DHT22;10583;49.084;8.646;2022-11-15T07:02:30;8.10;99.90
20845;DHT22;10583;49.084;8.646;2022-11-15T07:04:57;8.20;99.90
20845;DHT22;10583;49.084;8.646;2022-11-15T07:07:24;8.20;99.90
20845;DHT22;10583;49.084;8.646;2022-11-15T07:09:50;8.20;99.90
20845;DHT22;10583;49.084;8.646;2022-11-15T07:12:18;8.20;99.90
20845;DHT22;10583;49.084;8.646;2022-11-15T07:14:45;8.30;99.90
20845;DHT22;10583;49.084;8.646;2022-11-15T07:17:12;8.40;99.90
20845;DHT22;10583;49.084;8.646;2022-11-15T07:19:39;8.40;99.90
20845;DHT22;10583;49.084;8.646;2022-11-15T07:22:05;8.40;99.90
20845;DHT22;10583;49.084;8.646;2022-11-15T07:24:32;8.50;99.90
20845;DHT22;10583;49.084;8.646;2022-11-15T07:26:59;8.50;99.90
20845;DHT22;10583;49.084;8.646;2022-11-15T07:29:27;8.60;99.90
20845;DHT22;10583;49.084;8.646;2022-11-15T07:31:54;8.70;99.90
20845;DHT22;10583;49.084;8.646;2022-11-15T07:34:21;8.70;99.90
20845;DHT22;10583;49.084;8.646;2022-11-15T07:36:47;8.80;99.90
20845;DHT22;10583;49.084;8.646;2022-11-15T07:39:14;8.90;99.90
20845;DHT22;10583;49.084;8.646;2022-11-15T07:41:41;8.90;99.90
20845;DHT22;10583;49.084;8.646;2022-11-15T07:44:08;9.00;99.90
20845;DHT22;10583;49.084;8.646;2022-11-15T07:46:36;9.10;99.90
20845;DHT22;10583;49.084;8.646;2022-11-15T07:49:03;9.20;99.90
20845;DHT22;10583;49.084;8.646;2022-11-15T07:51:30;9.20;99.90
20845;DHT22;10583;49.084;8.646;2022-11-15T07:53:57;9.30;99.90
20845;DHT22;10583;49.084;8.646;2022-11-15T07:56:23;9.40;99.90
20845;DHT22;10583;49.084;8.646;2022-11-15T07:58:50;9.40;99.90
20845;DHT22;10583;49.084;8.646;2022-11-15T08:01:17;9.50;99.90
20845;DHT22;10583;49.084;8.646;2022-11-15T08:03:45;9.60;99.90
20845;DHT22;10583;49.084;8.646;2022-11-15T08:06:11;9.60;99.90
20845;DHT22;10583;49.084;8.646;2022-11-15T08:08:38;9.60;99.90
20845;DHT22;10583;49.084;8.646;2022-11-15T08:11:05;9.60;99.90
20845;DHT22;10583;49.084;8.646;2022-11-15T08:13:31;9.70;99.90
20845;DHT22;10583;49.084;8.646;2022-11-15T08:15:58;9.70;99.90
20845;DHT22;10583;49.084;8.646;2022-11-15T08:18:25;9.70;99.90
20845;DHT22;10583;49.084;8.646;2022-11-15T08:20:58;9.60;99.90
20845;DHT22;10583;49.084;8.646;2022-11-15T08:23:25;9.60;99.90
20845;DHT22;10583;49.084;8.646;2022-11-15T08:25:53;9.60;99.90
20845;DHT22;10583;49.084;8.646;2022-11-15T08:28:24;9.70;99.90
20845;DHT22;10583;49.084;8.646;2022-11-15T08:30:51;9.70;99.90
20845;DHT22;10583;49.084;8.646;2022-11-15T08:33:18;9.70;99.90
20845;DHT22;10583;49.084;8.646;2022-11-15T08:35:45;9.70;99.90
20845;DHT22;10583;49.084;8.646;2022-11-15T08:38:13;9.80;99.90
20845;DHT22;10583;49.084;8.646;2022-11-15T08:40:40;9.80;99.90
20845;DHT22;10583;49.084;8.646;2022-11-15T08:43:06;9.90;99.90
20845;DHT22;10583;49.084;8.646;2022-11-15T08:45:35;10.00;99.90
20845;DHT22;10583;49.084;8.646;2022-11-15T08:48:02;10.20;99.90
20845;DHT22;10583;49.084;8.646;2022-11-15T08:50:29;10.30;99.90
20845;DHT22;10583;49.084;8.646;2022-11-15T08:52:56;10.30;99.90
20845;DHT22;10583;49.084;8.646;2022-11-15T08:55:25;10.40;99.90
20845;DHT22;10583;49.084;8.646;2022-11-15T08:57:52;10.50;99.90
20845;DHT22;10583;49.084;8.646;2022-11-15T09:00:19;10.60;99.90
20845;DHT22;10583;49.084;8.646;2022-11-15T09:02:46;10.60;99.90
20845;DHT22;10583;49.084;8.646;2022-11-15T09:05:13;10.70;99.90
20845;DHT22;10583;49.084;8.646;2022-11-15T09:07:40;10.70;99.90
20845;DHT22;10583;49.084;8.646;2022-11-15T09:10:08;10.70;99.90
20845;DHT22;10583;49.084;8.646;2022-11-15T09:12:36;10.80;99.90
20845;DHT22;10583;49.084;8.646;2022-11-15T09:15:04;10.80;99.90
20845;DHT22;10583;49.084;8.646;2022-11-15T09:17:31;10.80;99.90
20845;DHT22;10583;49.084;8.646;2022-11-15T09:19:57;10.80;99.90
20845;DHT22;10583;49.084;8.646;2022-11-15T09:22:24;10.90;99.90
20845;DHT22;10583;49.084;8.646;2022-11-15T09:24:51;11.00;99.90
20845;DHT22;10583;49.084;8.646;2022-11-15T09:27:18;11.00;99.90
20845;DHT22;10583;49.084;8.646;2022-11-15T09:29:46;11.10;99.90
20845;DHT22;10583;49.084;8.646;2022-11-15T09:32:13;11.20;99.90
20845;DHT22;10583;49.084;8.646;2022-11-15T09:34:39;11.20;99.90
20845;DHT22;10583;49.084;8.646;2022-11-15T09:37:06;11.30;99.90
20845;DHT22;10583;49.084;8.646;2022-11-15T09:39:33;11.40;99.90
20845;DHT22;10583;49.084;8.646;2022-11-15T09:42:31;11.40;99.90
20845;DHT22;10583;49.084;8.646;2022-11-15T09:45:12;11.50;99.90
20845;DHT22;10583;49.084;8.646;2022-11-15T09:47:51;11.60;99.90
20845;DHT22;10583;49.084;8.646;2022-11-15T09:50:31;11.60;99.90
20845;DHT22;10583;49.084;8.646;2022-11-15T09:52:58;11.60;99.90
20845;DHT22;10583;49.084;8.646;2022-11-15T09:55:34;11.60;99.90
20845;DHT22;10583;49.084;8.646;2022-11-15T09:58:14;11.70;99.90
20845;DHT22;10583;49.084;8.646;2022-11-15T10:00:46;11.70;99.90
20845;DHT22;10583;49.084;8.646;2022-11-15T10:03:23;11.70;99.90
20845;DHT22;10583;49.084;8.646;2022-11-15T10:05:55;11.70;99.90
20845;DHT22;10583;49.084;8.646;2022-11-15T10:08:37;11.70;99.90
20845;DHT22;10583;49.084;8.646;2022-11-15T10:11:09;11.70;99.90
20845;DHT22;10583;49.084;8.646;2022-11-15T10:13:40;11.80;99.90
20845;DHT22;10583;49.084;8.646;2022-11-15T10:16:22;11.80;99.90
20845;DHT22;10583;49.084;8.646;2022-11-15T10:19:01;11.80;99.90
20845;DHT22;10583;49.084;8.646;2022-11-15T10:21:40;11.90;99.90
20845;DHT22;10583;49.084;8.646;2022-11-15T10:24:11;11.90;99.90
20845;DHT22;10583;49.084;8.646;2022-11-15T10:26:39;11.90;99.90
20845;DHT22;10583;49.084;8.646;2022-11-15T10:29:06;11.90;99.90
20845;DHT22;10583;49.084;8.646;2022-11-15T10:31:34;11.80;99.90
20845;DHT22;10583;49.084;8.646;2022-11-15T10:34:12;11.80;99.90
20845;DHT22;10583;49.084;8.646;2022-11-15T10:36:44;11.80;99.90
20845;DHT22;10583;49.084;8.646;2022-11-15T10:39:12;11.80;99.90
20845;DHT22;10583;49.084;8.646;2022-11-15T10:41:41;11.90;99.90
20845;DHT22;10583;49.084;8.646;2022-11-15T10:44:18;12.00;99.90
20845;DHT22;10583;49.084;8.646;2022-11-15T10:46:48;12.00;99.90
20845;DHT22;10583;49.084;8.646;2022-11-15T10:49:26;12.10;99.90
20845;DHT22;10583;49.084;8.646;2022-11-15T10:51:55;12.20;99.90
20845;DHT22;10583;49.084;8.646;2022-11-15T10:54:25;12.30;99.90
20845;DHT22;10583;49.084;8.646;2022-11-15T10:57:00;12.30;99.90
20845;DHT22;10583;49.084;8.646;2022-11-15T10:59:32;12.40;99.90
20845;DHT22;10583;49.084;8.646;2022-11-15T11:02:29;12.40;99.90
20845;DHT22;10583;49.084;8.646;2022-11-15T11:04:56;12.40;99.90
20845;DHT22;10583;49.084;8.646;2022-11-15T11:07:25;12.30;99.90
20845;DHT22;10583;49.084;8.646;2022-11-15T11:09:58;12.30;99.90
20845;DHT22;10583;49.084;8.646;2022-11-15T11:12:28;12.30;99.90
20845;DHT22;10583;49.084;8.646;2022-11-15T11:14:55;12.30;99.90
20845;DHT22;10583;49.084;8.646;2022-11-15T11:17:32;12.30;99.90
20845;DHT22;10583;49.084;8.646;2022-11-15T11:20:06;12.40;99.90
20845;DHT22;10583;49.084;8.646;2022-11-15T11:22:41;12.40;99.90
20845;DHT22;10583;49.084;8.646;2022-11-15T11:25:22;12.40;99.90
20845;DHT22;10583;49.084;8.646;2022-11-15T11:28:00;12.40;99.90
20845;DHT22;10583;49.084;8.646;2022-11-15T11:30:38;12.30;99.90
20845;DHT22;10583;49.084;8.646;2022-11-15T11:33:16;12.40;99.90
20845;DHT22;10583;49.084;8.646;2022-11-15T11:36:03;12.40;99.90
20845;DHT22;10583;49.084;8.646;2022-11-15T11:38:48;12.50;99.90
20845;DHT22;10583;49.084;8.646;2022-11-15T11:41:26;12.50;99.90
20845;DHT22;10583;49.084;8.646;2022-11-15T11:44:18;12.50;99.90
20845;DHT22;10583;49.084;8.646;2022-11-15T11:46:55;12.60;99.90
20845;DHT22;10583;49.084;8.646;2022-11-15T11:49:29;12.60;99.90
20845;DHT22;10583;49.084;8.646;2022-11-15T11:52:02;12.60;99.90
20845;DHT22;10583;49.084;8.646;2022-11-15T11:54:37;12.60;99.90
20845;DHT22;10583;49.084;8.646;2022-11-15T11:57:16;12.60;99.90
20845;DHT22;10583;49.084;8.646;2022-11-15T11:59:52;12.60;99.90
20845;DHT22;10583;49.084;8.646;2022-11-15T12:02:25;12.60;99.90
20845;DHT22;10583;49.084;8.646;2022-11-15T12:05:04;12.60;99.90
20845;DHT22;10583;49.084;8.646;2022-11-15T12:07:34;12.60;99.90
20845;DHT22;10583;49.084;8.646;2022-11-15T12:10:05;12.50;99.90
20845;DHT22;10583;49.084;8.646;2022-11-15T12:12:44;12.40;99.90
20845;DHT22;10583;49.084;8.646;2022-11-15T12:15:16;12.40;99.90
20845;DHT22;10583;49.084;8.646;2022-11-15T12:17:46;12.30;99.90
20845;DHT22;10583;49.084;8.646;2022-11-15T12:20:17;12.20;99.90
20845;DHT22;10583;49.084;8.646;2022-11-15T12:22:49;12.20;99.90
20845;DHT22;10583;49.084;8.646;2022-11-15T12:25:21;12.30;99.90
20845;DHT22;10583;49.084;8.646;2022-11-15T12:27:52;12.30;99.90
20845;DHT22;10583;49.084;8.646;2022-11-15T12:30:21;12.30;99.90
20845;DHT22;10583;49.084;8.646;2022-11-15T12:32:54;12.30;99.90
20845;DHT22;10583;49.084;8.646;2022-11-15T12:35:27;12.30;99.90
20845;DHT22;10583;49.084;8.646;2022-11-15T12:37:55;12.40;99.90
20845;DHT22;10583;49.084;8.646;2022-11-15T12:40:34;12.40;99.90
20845;DHT22;10583;49.084;8.646;2022-11-15T12:46:03;12.60;99.90
20845;DHT22;10583;49.084;8.646;2022-11-15T12:48:58;12.70;99.90
20845;DHT22;10583;49.084;8.646;2022-11-15T12:55:02;12.80;99.90
20845;DHT22;10583;49.084;8.646;2022-11-15T12:57:48;12.90;99.90
20845;DHT22;10583;49.084;8.646;2022-11-15T13:00:42;13.00;99.90
20845;DHT22;10583;49.084;8.646;2022-11-15T13:03:33;13.10;99.90
20845;DHT22;10583;49.084;8.646;2022-11-15T13:06:05;13.20;99.90
20845;DHT22;10583;49.084;8.646;2022-11-15T13:08:41;13.20;99.90
20845;DHT22;10583;49.084;8.646;2022-11-15T13:11:44;13.30;99.90
20845;DHT22;10583;49.084;8.646;2022-11-15T13:14:40;13.40;99.90
20845;DHT22;10583;49.084;8.646;2022-11-15T13:17:27;13.50;99.90
20845;DHT22;10583;49.084;8.646;2022-11-15T13:19:59;13.50;99.90
20845;DHT22;10583;49.084;8.646;2022-11-15T13:22:27;13.50;99.90
20845;DHT22;10583;49.084;8.646;2022-11-15T13:25:23;13.50;99.90
20845;DHT22;10583;49.084;8.646;2022-11-15T13:27:55;13.60;99.90
20845;DHT22;10583;49.084;8.646;2022-11-15T13:30:24;13.70;99.90
20845;DHT22;10583;49.084;8.646;2022-11-15T13:32:51;13.70;99.90
20845;DHT22;10583;49.084;8.646;2022-11-15T13:35:21;13.80;99.90
20845;DHT22;10583;49.084;8.646;2022-11-15T13:37:48;13.80;99.90
20845;DHT22;10583;49.084;8.646;2022-11-15T13:40:22;13.90;99.90
20845;DHT22;10583;49.084;8.646;2022-11-15T13:42:49;14.00;99.90
20845;DHT22;10583;49.084;8.646;2022-11-15T13:45:18;14.00;99.90
20845;DHT22;10583;49.084;8.646;2022-11-15T13:47:51;14.00;99.90
20845;DHT22;10583;49.084;8.646;2022-11-15T13:50:20;14.10;99.90
20845;DHT22;10583;49.084;8.646;2022-11-15T13:52:48;14.10;99.90
20845;DHT22;10583;49.084;8.646;2022-11-15T13:55:18;14.10;99.90
20845;DHT22;10583;49.084;8.646;2022-11-15T13:57:47;14.00;99.90
20845;DHT22;10583;49.084;8.646;2022-11-15T14:00:35;14.00;99.90
20845;DHT22;10583;49.084;8.646;2022-11-15T14:03:11;13.90;99.90
20845;DHT22;10583;49.084;8.646;2022-11-15T14:05:40;14.00;99.90
20845;DHT22;10583;49.084;8.646;2022-11-15T14:08:21;14.00;99.90
20845;DHT22;10583;49.084;8.646;2022-11-15T14:11:06;14.00;99.90
20845;DHT22;10583;49.084;8.646;2022-11-15T14:13:33;14.00;99.90
20845;DHT22;10583;49.084;8.646;2022-11-15T14:16:15;13.90;99.90
20845;DHT22;10583;49.084;8.646;2022-11-15T14:18:45;14.00;99.90
20845;DHT22;10583;49.084;8.646;2022-11-15T14:21:13;14.00;99.90
20845;DHT22;10583;49.084;8.646;2022-11-15T14:23:40;13.90;99.90
20845;DHT22;10583;49.084;8.646;2022-11-15T14:26:25;13.90;99.90
20845;DHT22;10583;49.084;8.646;2022-11-15T14:28:52;13.90;99.90
20845;DHT22;10583;49.084;8.646;2022-11-15T14:31:21;13.90;99.90
20845;DHT22;10583;49.084;8.646;2022-11-15T14:33:48;13.80;99.90
20845;DHT22;10583;49.084;8.646;2022-11-15T14:36:17;13.80;99.90
20845;DHT22;10583;49.084;8.646;2022-11-15T14:38:44;13.70;99.90
20845;DHT22;10583;49.084;8.646;2022-11-15T14:43:45;13.70;99.90
20845;DHT22;10583;49.084;8.646;2022-11-15T14:46:12;13.70;99.90
20845;DHT22;10583;49.084;8.646;2022-11-15T14:48:40;13.60;99.90
20845;DHT22;10583;49.084;8.646;2022-11-15T14:51:11;13.70;99.90
20845;DHT22;10583;49.084;8.646;2022-11-15T14:53:38;13.60;99.90
20845;DHT22;10583;49.084;8.646;2022-11-15T14:56:05;13.60;99.90
20845;DHT22;10583;49.084;8.646;2022-11-15T14:58:32;13.60;99.90
20845;DHT22;10583;49.084;8.646;2022-11-15T15:00:59;13.50;99.90
20845;DHT22;10583;49.084;8.646;2022-11-15T15:03:25;13.50;99.90
20845;DHT22;10583;49.084;8.646;2022-11-15T15:05:53;13.40;99.90
20845;DHT22;10583;49.084;8.646;2022-11-15T15:08:21;13.30;99.90
20845;DHT22;10583;49.084;8.646;2022-11-15T15:10:48;13.30;99.90
20845;DHT22;10583;49.084;8.646;2022-11-15T15:13:18;13.20;99.90
20845;DHT22;10583;49.084;8.646;2022-11-15T15:15:46;13.20;99.90
20845;DHT22;10583;49.084;8.646;2022-11-15T15:18:13;13.20;99.90
20845;DHT22;10583;49.084;8.646;2022-11-15T15:20:41;13.20;99.90
20845;DHT22;10583;49.084;8.646;2022-11-15T15:23:15;13.10;99.90
20845;DHT22;10583;49.084;8.646;2022-11-15T15:25:42;13.10;99.90
20845;DHT22;10583;49.084;8.646;2022-11-15T15:28:11;13.00;99.90
20845;DHT22;10583;49.084;8.646;2022-11-15T15:30:37;13.00;99.90
20845;DHT22;10583;49.084;8.646;2022-11-15T15:33:04;12.90;99.90
20845;DHT22;10583;49.084;8.646;2022-11-15T15:35:32;12.80;99.90
20845;DHT22;10583;49.084;8.646;2022-11-15T15:38:00;12.80;99.90
20845;DHT22;10583;49.084;8.646;2022-11-15T15:40:29;12.80;99.90
20845;DHT22;10583;49.084;8.646;2022-11-15T15:42:57;12.70;99.90
20845;DHT22;10583;49.084;8.646;2022-11-15T15:45:26;12.70;99.90
20845;DHT22;10583;49.084;8.646;2022-11-15T15:47:53;12.70;99.90
20845;DHT22;10583;49.084;8.646;2022-11-15T15:50:22;12.70;99.90
20845;DHT22;10583;49.084;8.646;2022-11-15T15:52:49;12.70;99.90
20845;DHT22;10583;49.084;8.646;2022-11-15T15:55:17;12.70;99.90
20845;DHT22;10583;49.084;8.646;2022-11-15T15:57:45;12.70;99.90
20845;DHT22;10583;49.084;8.646;2022-11-15T16:00:12;12.70;99.90
20845;DHT22;10583;49.084;8.646;2022-11-15T16:02:39;12.70;99.90
20845;DHT22;10583;49.084;8.646;2022-11-15T16:05:07;12.80;99.90
20845;DHT22;10583;49.084;8.646;2022-11-15T16:07:34;12.80;99.90
20845;DHT22;10583;49.084;8.646;2022-11-15T16:10:01;12.80;99.90
20845;DHT22;10583;49.084;8.646;2022-11-15T16:12:28;12.90;99.90
20845;DHT22;10583;49.084;8.646;2022-11-15T16:14:56;12.90;99.90